Terminal Aerodrome Forecast (TAF)

TAF

Data at: 0730 UTC 29 Nov 2022

TAF for:NVSC (Sola/Vanua Lava Arpt, TO, VU) issued at 0500 UTC 29 Nov 2022
Text:TAF NVSC 290500Z 2906/3006 04005KT 9999 BKN020
Forecast period:0600 UTC 29 November 2022 to 0600 UTC 30 November 2022
Forecast type:FROM: standard forecast or significant change
Winds:from the NE (40 degrees) at 6 MPH (5 knots; 2.6 m/s)
Visibility:6 or more sm (10+ km)
Ceiling:2000 feet AGL
Clouds: broken clouds at 2000 feet AGL
Text:PROB40
Forecast period:0600 to 1200 UTC 29 November 2022
Forecast type:TEMPORARY: The following changes expected for less than half the time period
Visibility: 6 sm ( 9 km)
Ceiling:1800 feet AGL
Clouds: broken clouds at 1800 feet AGL
Weather:-SHRA (light rain showers)

TAF

Data at: 0730 UTC 29 Nov 2022

TAF for:NVSG (Longana Arpt, PA, VU) issued at 0500 UTC 29 Nov 2022
Text:TAF NVSG 290500Z 2906/3006 05006KT 9999 SCT020
Forecast period:0600 UTC 29 November 2022 to 0600 UTC 30 November 2022
Forecast type:FROM: standard forecast or significant change
Winds:from the NE (50 degrees) at 7 MPH (6 knots; 3.1 m/s)
Visibility:6 or more sm (10+ km)
Ceiling:at least 12,000 feet AGL
Clouds: scattered clouds at 2000 feet AGL
Text:PROB40
Forecast period:0600 to 1200 UTC 29 November 2022
Forecast type:TEMPORARY: The following changes expected for less than half the time period
Visibility: 6 sm ( 9 km)
Ceiling:1800 feet AGL
Clouds: broken clouds at 1800 feet AGL, overcast cloud deck at 9000 feet AGL
Weather:-SHRA (light rain showers)

TAF

Data at: 0730 UTC 29 Nov 2022

TAF for:NVSS (Santo/Pekoa Intl, SA, VU) issued at 0500 UTC 29 Nov 2022
Text:TAF NVSS 290500Z 2906/3006 04006KT 9999 SCT020
Forecast period:0600 UTC 29 November 2022 to 0600 UTC 30 November 2022
Forecast type:FROM: standard forecast or significant change
Winds:from the NE (40 degrees) at 7 MPH (6 knots; 3.1 m/s)
Visibility:6 or more sm (10+ km)
Ceiling:at least 12,000 feet AGL
Clouds: scattered clouds at 2000 feet AGL
Text:PROB40
Forecast period:0600 to 1200 UTC 29 November 2022
Forecast type:TEMPORARY: The following changes expected for less than half the time period
Visibility: 6 sm ( 9 km)
Ceiling:1800 feet AGL
Clouds: broken clouds at 1800 feet AGL, overcast cloud deck at 9000 feet AGL
Weather:-SHRA (light rain showers)

TAF

Data at: 0730 UTC 29 Nov 2022

TAF for:NVSL (Malekula Isl/Lamap, MA, VU) issued at 0500 UTC 29 Nov 2022
Text:TAF NVSL 290500Z 2906/3006 08006KT 9999 SCT020
Forecast period:0600 UTC 29 November 2022 to 0600 UTC 30 November 2022
Forecast type:FROM: standard forecast or significant change
Winds:from the E (80 degrees) at 7 MPH (6 knots; 3.1 m/s)
Visibility:6 or more sm (10+ km)
Ceiling:at least 12,000 feet AGL
Clouds: scattered clouds at 2000 feet AGL
Text:PROB40
Forecast period:0600 to 1200 UTC 29 November 2022
Forecast type:TEMPORARY: The following changes expected for less than half the time period
Visibility: 6 sm ( 9 km)
Ceiling:1800 feet AGL
Clouds: broken clouds at 1800 feet AGL
Weather:-SHRA (light rain showers)

TAF

Data at: 0730 UTC 29 Nov 2022

TAF for:NVSP (Norsup Arpt, MA, VU) issued at 0500 UTC 29 Nov 2022
Text:TAF NVSP 290500Z 2906/3006 05006KT 9999 SCT020
Forecast period:0600 UTC 29 November 2022 to 0600 UTC 30 November 2022
Forecast type:FROM: standard forecast or significant change
Winds:from the NE (50 degrees) at 7 MPH (6 knots; 3.1 m/s)
Visibility:6 or more sm (10+ km)
Ceiling:at least 12,000 feet AGL
Clouds: scattered clouds at 2000 feet AGL
Text:PROB40
Forecast period:0600 to 1200 UTC 29 November 2022
Forecast type:TEMPORARY: The following changes expected for less than half the time period
Visibility: 6 sm ( 9 km)
Ceiling:1800 feet AGL
Clouds: broken clouds at 1800 feet AGL
Weather:-SHRA (light rain showers)

TAF

Data at: 0730 UTC 29 Nov 2022

TAF for:NVVV (Efate/Bauerfield Int, SE, VU) issued at 0500 UTC 29 Nov 2022
Text:TAF NVVV 290500Z 2906/3006 04006KT 9999 SCT020
Forecast period:0600 UTC 29 November 2022 to 0600 UTC 30 November 2022
Forecast type:FROM: standard forecast or significant change
Winds:from the NE (40 degrees) at 7 MPH (6 knots; 3.1 m/s)
Visibility:6 or more sm (10+ km)
Ceiling:at least 12,000 feet AGL
Clouds: scattered clouds at 2000 feet AGL
Text:PROB40
Forecast period:0600 to 1200 UTC 29 November 2022
Forecast type:TEMPORARY: The following changes expected for less than half the time period
Visibility: 6 sm ( 9 km)
Ceiling:1800 feet AGL
Clouds: broken clouds at 1800 feet AGL
Weather:-SHRA (light rain showers)

TAF

Data at: 0730 UTC 29 Nov 2022

TAF for:NVVW (Tanna Arpt, TA, VU) issued at 0500 UTC 29 Nov 2022
Text:TAF NVVW 290500Z 2906/3006 04008KT 9999 SCT020
Forecast period:0600 UTC 29 November 2022 to 0600 UTC 30 November 2022
Forecast type:FROM: standard forecast or significant change
Winds:from the NE (40 degrees) at 9 MPH (8 knots; 4.1 m/s)
Visibility:6 or more sm (10+ km)
Ceiling:at least 12,000 feet AGL
Clouds: scattered clouds at 2000 feet AGL
Text:PROB40
Forecast period:0600 to 1200 UTC 29 November 2022
Forecast type:TEMPORARY: The following changes expected for less than half the time period
Visibility: 6 sm ( 9 km)
Ceiling:1800 feet AGL
Clouds: few clouds at 1000 feet AGL, broken clouds at 1800 feet AGL, overcast cloud deck at 9000 feet AGL
Weather:SHRA (rain showers)

TAF

Data at: 0730 UTC 29 Nov 2022

TAF for:NVVA (Aneityum/Mystery Isl, TA, VU) issued at 0500 UTC 29 Nov 2022
Text:TAF NVVA 290500Z 2906/3006 04008KT 9999 SCT020
Forecast period:0600 UTC 29 November 2022 to 0600 UTC 30 November 2022
Forecast type:FROM: standard forecast or significant change
Winds:from the NE (40 degrees) at 9 MPH (8 knots; 4.1 m/s)
Visibility:6 or more sm (10+ km)
Ceiling:at least 12,000 feet AGL
Clouds: scattered clouds at 2000 feet AGL
Text:INTER 2906/2910 8000 SHRA FEW010 BKN018 OVC090
Forecast period:0600 to 1000 UTC 29 November 2022
Forecast type:TEMPORARY: The following changes expected for less than half the time period
Visibility: 5 sm ( 8 km)
Ceiling:1800 feet AGL
Clouds: few clouds at 1000 feet AGL, broken clouds at 1800 feet AGL, overcast cloud deck at 9000 feet AGL
Weather:SHRA (rain showers)
Text:PROB40
Forecast period:0800 to 1200 UTC 29 November 2022
Forecast type:TEMPORARY: The following changes expected for less than half the time period
Visibility: 4 sm ( 7 km)
Ceiling:1800 feet AGL
Clouds: few clouds at 1000 feet AGL, broken clouds at 1800 feet AGL, few clouds at 2000 feet AGL
Weather:-TSRA (light rain associated with thunderstorm(s))

TAF

Data at: 0730 UTC 29 Nov 2022

TAF NVVV 290500Z 2906/3006 04006KT 9999 SCT020
  PROB40
  INTER 2906/2912 9000 -SHRA BKN018
TAF NVSC 290500Z 2906/3006 04005KT 9999 BKN020
  PROB40
  INTER 2906/2912 9000 -SHRA BKN018
TAF NVSG 290500Z 2906/3006 05006KT 9999 SCT020
  PROB40
  INTER 2906/2912 9000 -SHRA BKN018 OVC090
TAF NVSS 290500Z 2906/3006 04006KT 9999 SCT020
  PROB40
  INTER 2906/2912 9000 -SHRA BKN018 OVC090
TAF NVSL 290500Z 2906/3006 08006KT 9999 SCT020
  PROB40
  INTER 2906/2912 9000 -SHRA BKN018
TAF NVSP 290500Z 2906/3006 05006KT 9999 SCT020
  PROB40
  INTER 2906/2912 9000 -SHRA BKN018
TAF NVVW 290500Z 2906/3006 04008KT 9999 SCT020
  PROB40
  INTER 2906/2912 9000 SHRA FEW010 BKN018 OVC090
TAF NVVA 290500Z 2906/3006 04008KT 9999 SCT020
  INTER 2906/2910 8000 SHRA FEW010 BKN018 OVC090
  PROB40
  INTER 2908/2912 7000 -TSRA FEW010 BKN018 FEW020CB